Terminal Aerodrome Forecast
Issued by NWS

Home | Current Version | Previous Version | Text Only | Print | Product List | Glossary On
Versions: 1 2 3 4 5 6 7 8 9 10 11 12 13 14 15 16 17 18 19
000
FTUS46 KMFR 260524
TAFLMT
TAF
KLMT 260524Z 2606/2706 28009KT P6SM SCT050 OVC200
     FM261400 17014KT P6SM -RA SCT025 OVC040
     FM261800 18015G25KT P6SM -RA SCT020 OVC040
     FM270100 22013KT P6SM -SHRA SCT010 OVC020=

USA.gov is the U.S. government's official web portal to all federal, state and local government web resources and services.